sensor_id;sensor_type;location;lat;lon;timestamp;pressure;altitude;pressure_sealevel;temperature
74539;BMP180;66042;51.090;-115.340;2023-03-31T00:01:09;85324.40;;;31.22
74539;BMP180;66042;51.090;-115.340;2023-03-31T00:03:37;85324.00;;;30.58
74539;BMP180;66042;51.090;-115.340;2023-03-31T00:06:11;85322.80;;;29.80
74539;BMP180;66042;51.090;-115.340;2023-03-31T00:08:45;85314.80;;;29.50
74539;BMP180;66042;51.090;-115.340;2023-03-31T00:11:13;85319.20;;;28.90
74539;BMP180;66042;51.090;-115.340;2023-03-31T00:13:41;85319.20;;;28.18
74539;BMP180;66042;51.090;-115.340;2023-03-31T00:16:09;85318.20;;;27.58
74539;BMP180;66042;51.090;-115.340;2023-03-31T00:18:36;85322.80;;;26.62
74539;BMP180;66042;51.090;-115.340;2023-03-31T00:21:13;85322.40;;;25.38
74539;BMP180;66042;51.090;-115.340;2023-03-31T00:24:05;85317.00;;;23.98
74539;BMP180;66042;51.090;-115.340;2023-03-31T00:26:34;85310.20;;;22.92
74539;BMP180;66042;51.090;-115.340;2023-03-31T00:29:06;85306.60;;;22.44
74539;BMP180;66042;51.090;-115.340;2023-03-31T00:31:33;85307.20;;;21.90
74539;BMP180;66042;51.090;-115.340;2023-03-31T00:34:01;85305.80;;;21.40
74539;BMP180;66042;51.090;-115.340;2023-03-31T00:36:28;85297.20;;;21.10
74539;BMP180;66042;51.090;-115.340;2023-03-31T00:38:58;85304.20;;;20.54
74539;BMP180;66042;51.090;-115.340;2023-03-31T00:41:27;85300.40;;;19.98
74539;BMP180;66042;51.090;-115.340;2023-03-31T00:46:43;85299.40;;;19.06
74539;BMP180;66042;51.090;-115.340;2023-03-31T00:49:19;85299.60;;;18.36
74539;BMP180;66042;51.090;-115.340;2023-03-31T00:51:50;85299.60;;;17.64
74539;BMP180;66042;51.090;-115.340;2023-03-31T00:54:18;85293.60;;;17.10
74539;BMP180;66042;51.090;-115.340;2023-03-31T00:56:49;85297.20;;;16.70
74539;BMP180;66042;51.090;-115.340;2023-03-31T00:59:19;85301.40;;;16.20
74539;BMP180;66042;51.090;-115.340;2023-03-31T01:01:52;85299.60;;;15.48
74539;BMP180;66042;51.090;-115.340;2023-03-31T01:04:20;85297.00;;;14.76
74539;BMP180;66042;51.090;-115.340;2023-03-31T01:07:04;85294.80;;;14.16
74539;BMP180;66042;51.090;-115.340;2023-03-31T01:09:34;85297.20;;;13.54
74539;BMP180;66042;51.090;-115.340;2023-03-31T01:12:07;85302.20;;;13.00
74539;BMP180;66042;51.090;-115.340;2023-03-31T01:14:36;85308.00;;;12.60
74539;BMP180;66042;51.090;-115.340;2023-03-31T01:17:04;85307.80;;;12.18
74539;BMP180;66042;51.090;-115.340;2023-03-31T01:41:27;85309.20;;;9.64
74539;BMP180;66042;51.090;-115.340;2023-03-31T01:44:28;85306.00;;;9.40
74539;BMP180;66042;51.090;-115.340;2023-03-31T01:47:09;85306.40;;;9.10
74539;BMP180;66042;51.090;-115.340;2023-03-31T01:50:04;85304.20;;;8.90
74539;BMP180;66042;51.090;-115.340;2023-03-31T01:52:48;85305.20;;;8.60
74539;BMP180;66042;51.090;-115.340;2023-03-31T01:55:45;85307.00;;;8.40
74539;BMP180;66042;51.090;-115.340;2023-03-31T01:58:38;85301.00;;;8.16
74539;BMP180;66042;51.090;-115.340;2023-03-31T02:04:09;85304.60;;;7.70
74539;BMP180;66042;51.090;-115.340;2023-03-31T02:06:44;85308.80;;;7.50
74539;BMP180;66042;51.090;-115.340;2023-03-31T02:09:17;85303.40;;;7.40
74539;BMP180;66042;51.090;-115.340;2023-03-31T02:11:48;85309.20;;;7.20
74539;BMP180;66042;51.090;-115.340;2023-03-31T02:14:30;85310.20;;;7.08
74539;BMP180;66042;51.090;-115.340;2023-03-31T02:17:01;85309.60;;;6.90
74539;BMP180;66042;51.090;-115.340;2023-03-31T02:19:39;85316.60;;;6.76
74539;BMP180;66042;51.090;-115.340;2023-03-31T02:22:09;85319.00;;;6.60
74539;BMP180;66042;51.090;-115.340;2023-03-31T02:24:42;85322.40;;;6.40
74539;BMP180;66042;51.090;-115.340;2023-03-31T02:27:54;85324.40;;;6.24
74539;BMP180;66042;51.090;-115.340;2023-03-31T02:30:14;85321.60;;;6.10
74539;BMP180;66042;51.090;-115.340;2023-03-31T02:32:43;85324.00;;;5.90
74539;BMP180;66042;51.090;-115.340;2023-03-31T02:35:16;85329.40;;;5.72
74539;BMP180;66042;51.090;-115.340;2023-03-31T02:37:45;85330.40;;;5.60
74539;BMP180;66042;51.090;-115.340;2023-03-31T02:40:22;85333.60;;;5.50
74539;BMP180;66042;51.090;-115.340;2023-03-31T02:42:53;85333.00;;;5.40
74539;BMP180;66042;51.090;-115.340;2023-03-31T02:45:41;85339.60;;;5.30
74539;BMP180;66042;51.090;-115.340;2023-03-31T02:48:27;85342.20;;;5.20
74539;BMP180;66042;51.090;-115.340;2023-03-31T02:59:48;85357.40;;;4.50
74539;BMP180;66042;51.090;-115.340;2023-03-31T03:15:20;85366.40;;;3.68
74539;BMP180;66042;51.090;-115.340;2023-03-31T03:17:50;85369.40;;;3.50
74539;BMP180;66042;51.090;-115.340;2023-03-31T03:20:20;85368.00;;;3.50
74539;BMP180;66042;51.090;-115.340;2023-03-31T03:22:47;85372.40;;;3.40
74539;BMP180;66042;51.090;-115.340;2023-03-31T03:25:16;85377.20;;;3.30
74539;BMP180;66042;51.090;-115.340;2023-03-31T03:27:43;85377.60;;;3.20
74539;BMP180;66042;51.090;-115.340;2023-03-31T03:30:13;85380.80;;;3.10
74539;BMP180;66042;51.090;-115.340;2023-03-31T03:32:40;85384.40;;;3.00
74539;BMP180;66042;51.090;-115.340;2023-03-31T03:35:08;85388.20;;;2.90
74539;BMP180;66042;51.090;-115.340;2023-03-31T03:37:36;85394.20;;;2.80
74539;BMP180;66042;51.090;-115.340;2023-03-31T03:40:03;85392.20;;;2.70
74539;BMP180;66042;51.090;-115.340;2023-03-31T03:42:34;85400.00;;;2.60
74539;BMP180;66042;51.090;-115.340;2023-03-31T03:45:01;85394.60;;;2.50
74539;BMP180;66042;51.090;-115.340;2023-03-31T03:47:29;85404.20;;;2.40
74539;BMP180;66042;51.090;-115.340;2023-03-31T03:49:56;85403.20;;;2.34
74539;BMP180;66042;51.090;-115.340;2023-03-31T03:52:23;85403.20;;;2.28
74539;BMP180;66042;51.090;-115.340;2023-03-31T03:54:49;85411.00;;;2.20
74539;BMP180;66042;51.090;-115.340;2023-03-31T03:57:17;85410.40;;;2.10
74539;BMP180;66042;51.090;-115.340;2023-03-31T03:59:43;85411.80;;;2.00
74539;BMP180;66042;51.090;-115.340;2023-03-31T04:02:10;85415.00;;;2.00
74539;BMP180;66042;51.090;-115.340;2023-03-31T04:04:38;85416.40;;;1.90
74539;BMP180;66042;51.090;-115.340;2023-03-31T04:07:05;85419.40;;;1.80
74539;BMP180;66042;51.090;-115.340;2023-03-31T04:09:32;85421.60;;;1.72
74539;BMP180;66042;51.090;-115.340;2023-03-31T04:11:59;85417.00;;;1.70
74539;BMP180;66042;51.090;-115.340;2023-03-31T04:14:27;85424.20;;;1.60
74539;BMP180;66042;51.090;-115.340;2023-03-31T04:16:54;85424.60;;;1.50
74539;BMP180;66042;51.090;-115.340;2023-03-31T04:19:24;85427.20;;;1.44
74539;BMP180;66042;51.090;-115.340;2023-03-31T04:21:53;85424.60;;;1.40
74539;BMP180;66042;51.090;-115.340;2023-03-31T04:24:28;85421.40;;;1.30
74539;BMP180;66042;51.090;-115.340;2023-03-31T04:27:00;85428.20;;;1.20
74539;BMP180;66042;51.090;-115.340;2023-03-31T04:29:28;85424.40;;;1.10
74539;BMP180;66042;51.090;-115.340;2023-03-31T04:31:59;85436.20;;;1.04
74539;BMP180;66042;51.090;-115.340;2023-03-31T04:34:26;85436.20;;;1.00
74539;BMP180;66042;51.090;-115.340;2023-03-31T04:37:01;85431.80;;;0.90
74539;BMP180;66042;51.090;-115.340;2023-03-31T04:39:29;85433.40;;;0.90
74539;BMP180;66042;51.090;-115.340;2023-03-31T04:41:59;85435.20;;;0.80
74539;BMP180;66042;51.090;-115.340;2023-03-31T04:44:26;85436.60;;;0.70
74539;BMP180;66042;51.090;-115.340;2023-03-31T04:46:55;85435.20;;;0.70
74539;BMP180;66042;51.090;-115.340;2023-03-31T04:49:24;85439.60;;;0.60
74539;BMP180;66042;51.090;-115.340;2023-03-31T04:51:51;85435.40;;;0.60
74539;BMP180;66042;51.090;-115.340;2023-03-31T04:54:18;85435.40;;;0.50
74539;BMP180;66042;51.090;-115.340;2023-03-31T04:56:46;85437.40;;;0.50
74539;BMP180;66042;51.090;-115.340;2023-03-31T04:59:13;85436.40;;;0.40
74539;BMP180;66042;51.090;-115.340;2023-03-31T05:01:40;85442.00;;;0.40
74539;BMP180;66042;51.090;-115.340;2023-03-31T05:04:11;85438.60;;;0.30
74539;BMP180;66042;51.090;-115.340;2023-03-31T05:06:38;85433.80;;;0.28
74539;BMP180;66042;51.090;-115.340;2023-03-31T05:09:05;85431.80;;;0.20
74539;BMP180;66042;51.090;-115.340;2023-03-31T05:11:32;85434.20;;;0.20
74539;BMP180;66042;51.090;-115.340;2023-03-31T05:13:59;85436.40;;;0.10
74539;BMP180;66042;51.090;-115.340;2023-03-31T05:16:26;85440.60;;;0.00
74539;BMP180;66042;51.090;-115.340;2023-03-31T05:18:53;85443.40;;;-0.10
74539;BMP180;66042;51.090;-115.340;2023-03-31T05:21:21;85446.80;;;-0.10
74539;BMP180;66042;51.090;-115.340;2023-03-31T05:23:49;85444.60;;;-0.20
74539;BMP180;66042;51.090;-115.340;2023-03-31T05:26:16;85449.40;;;-0.24
74539;BMP180;66042;51.090;-115.340;2023-03-31T05:28:44;85452.40;;;-0.30
74539;BMP180;66042;51.090;-115.340;2023-03-31T05:31:11;85453.40;;;-0.30
74539;BMP180;66042;51.090;-115.340;2023-03-31T05:33:38;85451.80;;;-0.36
74539;BMP180;66042;51.090;-115.340;2023-03-31T05:36:10;85451.40;;;-0.40
74539;BMP180;66042;51.090;-115.340;2023-03-31T05:38:38;85457.00;;;-0.40
74539;BMP180;66042;51.090;-115.340;2023-03-31T05:41:06;85459.60;;;-0.40
74539;BMP180;66042;51.090;-115.340;2023-03-31T05:43:35;85455.40;;;-0.50
74539;BMP180;66042;51.090;-115.340;2023-03-31T05:46:03;85449.20;;;-0.50
74539;BMP180;66042;51.090;-115.340;2023-03-31T05:48:30;85458.40;;;-0.50
74539;BMP180;66042;51.090;-115.340;2023-03-31T05:50:58;85453.20;;;-0.60
74539;BMP180;66042;51.090;-115.340;2023-03-31T05:53:27;85450.40;;;-0.60
74539;BMP180;66042;51.090;-115.340;2023-03-31T05:55:59;85453.00;;;-0.70
74539;BMP180;66042;51.090;-115.340;2023-03-31T05:58:28;85449.20;;;-0.70
74539;BMP180;66042;51.090;-115.340;2023-03-31T06:01:11;85451.80;;;-0.80
74539;BMP180;66042;51.090;-115.340;2023-03-31T06:03:41;85456.60;;;-0.80
74539;BMP180;66042;51.090;-115.340;2023-03-31T06:06:09;85454.00;;;-0.80
74539;BMP180;66042;51.090;-115.340;2023-03-31T06:08:39;85453.00;;;-0.90
74539;BMP180;66042;51.090;-115.340;2023-03-31T06:11:08;85446.20;;;-0.90
74539;BMP180;66042;51.090;-115.340;2023-03-31T06:13:37;85452.20;;;-1.00
74539;BMP180;66042;51.090;-115.340;2023-03-31T06:16:05;85453.40;;;-1.00
74539;BMP180;66042;51.090;-115.340;2023-03-31T06:18:34;85451.40;;;-1.00
74539;BMP180;66042;51.090;-115.340;2023-03-31T06:21:02;85451.60;;;-1.10
74539;BMP180;66042;51.090;-115.340;2023-03-31T06:23:29;85451.20;;;-1.10
74539;BMP180;66042;51.090;-115.340;2023-03-31T06:26:04;85450.60;;;-1.10
74539;BMP180;66042;51.090;-115.340;2023-03-31T06:28:34;85447.80;;;-1.20
74539;BMP180;66042;51.090;-115.340;2023-03-31T06:31:08;85451.40;;;-1.22
74539;BMP180;66042;51.090;-115.340;2023-03-31T06:33:38;85450.80;;;-1.30
74539;BMP180;66042;51.090;-115.340;2023-03-31T06:36:06;85446.60;;;-1.30
74539;BMP180;66042;51.090;-115.340;2023-03-31T06:38:36;85448.20;;;-1.30
74539;BMP180;66042;51.090;-115.340;2023-03-31T06:41:07;85453.00;;;-1.30
74539;BMP180;66042;51.090;-115.340;2023-03-31T06:43:34;85442.60;;;-1.40
74539;BMP180;66042;51.090;-115.340;2023-03-31T06:46:01;85439.80;;;-1.40
74539;BMP180;66042;51.090;-115.340;2023-03-31T06:48:29;85444.40;;;-1.44
74539;BMP180;66042;51.090;-115.340;2023-03-31T06:51:00;85443.40;;;-1.50
74539;BMP180;66042;51.090;-115.340;2023-03-31T06:53:29;85444.80;;;-1.60
74539;BMP180;66042;51.090;-115.340;2023-03-31T06:55:56;85451.00;;;-1.70
74539;BMP180;66042;51.090;-115.340;2023-03-31T06:58:23;85445.40;;;-1.70
74539;BMP180;66042;51.090;-115.340;2023-03-31T07:00:51;85444.20;;;-1.70
74539;BMP180;66042;51.090;-115.340;2023-03-31T07:03:18;85443.00;;;-1.70
74539;BMP180;66042;51.090;-115.340;2023-03-31T07:05:55;85448.80;;;-1.70
74539;BMP180;66042;51.090;-115.340;2023-03-31T07:08:23;85449.20;;;-1.70
74539;BMP180;66042;51.090;-115.340;2023-03-31T07:10:57;85449.20;;;-1.70
74539;BMP180;66042;51.090;-115.340;2023-03-31T07:13:25;85448.00;;;-1.76
74539;BMP180;66042;51.090;-115.340;2023-03-31T07:15:54;85445.60;;;-1.80
74539;BMP180;66042;51.090;-115.340;2023-03-31T07:18:22;85446.20;;;-1.90
74539;BMP180;66042;51.090;-115.340;2023-03-31T07:20:57;85447.40;;;-1.90
74539;BMP180;66042;51.090;-115.340;2023-03-31T07:23:25;85447.80;;;-1.90
74539;BMP180;66042;51.090;-115.340;2023-03-31T07:25:52;85451.80;;;-1.90
74539;BMP180;66042;51.090;-115.340;2023-03-31T07:28:20;85456.80;;;-2.00
74539;BMP180;66042;51.090;-115.340;2023-03-31T07:30:46;85451.80;;;-2.00
74539;BMP180;66042;51.090;-115.340;2023-03-31T07:33:14;85451.60;;;-2.00
74539;BMP180;66042;51.090;-115.340;2023-03-31T07:35:41;85451.40;;;-2.00
74539;BMP180;66042;51.090;-115.340;2023-03-31T07:38:10;85456.20;;;-2.06
74539;BMP180;66042;51.090;-115.340;2023-03-31T07:40:39;85453.80;;;-2.10
74539;BMP180;66042;51.090;-115.340;2023-03-31T07:43:07;85452.20;;;-2.12
74539;BMP180;66042;51.090;-115.340;2023-03-31T07:45:34;85450.40;;;-2.20
74539;BMP180;66042;51.090;-115.340;2023-03-31T07:48:02;85454.20;;;-2.22
74539;BMP180;66042;51.090;-115.340;2023-03-31T07:50:29;85450.00;;;-2.26
74539;BMP180;66042;51.090;-115.340;2023-03-31T07:52:56;85448.80;;;-2.28
74539;BMP180;66042;51.090;-115.340;2023-03-31T07:55:23;85450.60;;;-2.30
74539;BMP180;66042;51.090;-115.340;2023-03-31T07:57:52;85453.40;;;-2.30
74539;BMP180;66042;51.090;-115.340;2023-03-31T08:00:19;85451.40;;;-2.34
74539;BMP180;66042;51.090;-115.340;2023-03-31T08:02:47;85456.20;;;-2.40
74539;BMP180;66042;51.090;-115.340;2023-03-31T08:05:17;85453.60;;;-2.50
74539;BMP180;66042;51.090;-115.340;2023-03-31T08:07:46;85450.40;;;-2.50
74539;BMP180;66042;51.090;-115.340;2023-03-31T08:10:19;85453.20;;;-2.50
74539;BMP180;66042;51.090;-115.340;2023-03-31T08:12:46;85452.20;;;-2.50
74539;BMP180;66042;51.090;-115.340;2023-03-31T08:15:13;85454.00;;;-2.60
74539;BMP180;66042;51.090;-115.340;2023-03-31T08:17:41;85453.40;;;-2.60
74539;BMP180;66042;51.090;-115.340;2023-03-31T08:20:09;85455.40;;;-2.60
74539;BMP180;66042;51.090;-115.340;2023-03-31T08:22:40;85451.60;;;-2.70
74539;BMP180;66042;51.090;-115.340;2023-03-31T08:25:08;85453.60;;;-2.70
74539;BMP180;66042;51.090;-115.340;2023-03-31T08:27:38;85457.20;;;-2.70
74539;BMP180;66042;51.090;-115.340;2023-03-31T08:30:09;85451.80;;;-2.74
74539;BMP180;66042;51.090;-115.340;2023-03-31T08:32:37;85455.80;;;-2.80
74539;BMP180;66042;51.090;-115.340;2023-03-31T08:35:04;85454.20;;;-2.80
74539;BMP180;66042;51.090;-115.340;2023-03-31T08:37:32;85457.80;;;-2.80
74539;BMP180;66042;51.090;-115.340;2023-03-31T08:39:58;85463.00;;;-2.90
74539;BMP180;66042;51.090;-115.340;2023-03-31T08:42:44;85457.60;;;-3.00
74539;BMP180;66042;51.090;-115.340;2023-03-31T08:45:33;85465.60;;;-3.00
74539;BMP180;66042;51.090;-115.340;2023-03-31T08:48:28;85458.00;;;-3.02
74539;BMP180;66042;51.090;-115.340;2023-03-31T08:52:00;85453.40;;;-3.10
74539;BMP180;66042;51.090;-115.340;2023-03-31T08:56:49;85456.60;;;-3.10
74539;BMP180;66042;51.090;-115.340;2023-03-31T08:59:29;85459.80;;;-3.10
74539;BMP180;66042;51.090;-115.340;2023-03-31T09:05:17;85458.60;;;-3.20
74539;BMP180;66042;51.090;-115.340;2023-03-31T09:07:57;85457.20;;;-3.20
74539;BMP180;66042;51.090;-115.340;2023-03-31T09:10:56;85456.80;;;-3.22
74539;BMP180;66042;51.090;-115.340;2023-03-31T09:14:17;85464.80;;;-3.28
74539;BMP180;66042;51.090;-115.340;2023-03-31T09:19:51;85455.80;;;-3.40
74539;BMP180;66042;51.090;-115.340;2023-03-31T09:22:27;85461.40;;;-3.40
74539;BMP180;66042;51.090;-115.340;2023-03-31T09:25:09;85457.00;;;-3.38
74539;BMP180;66042;51.090;-115.340;2023-03-31T09:27:42;85456.80;;;-3.40
74539;BMP180;66042;51.090;-115.340;2023-03-31T09:32:41;85463.40;;;-3.56
74539;BMP180;66042;51.090;-115.340;2023-03-31T09:35:22;85457.20;;;-3.50
74539;BMP180;66042;51.090;-115.340;2023-03-31T09:37:51;85464.80;;;-3.60
74539;BMP180;66042;51.090;-115.340;2023-03-31T09:40:28;85464.80;;;-3.60
74539;BMP180;66042;51.090;-115.340;2023-03-31T09:43:18;85462.00;;;-3.64
74539;BMP180;66042;51.090;-115.340;2023-03-31T09:45:47;85468.00;;;-3.70
74539;BMP180;66042;51.090;-115.340;2023-03-31T09:48:19;85466.20;;;-3.70
74539;BMP180;66042;51.090;-115.340;2023-03-31T09:51:25;85467.60;;;-3.70
74539;BMP180;66042;51.090;-115.340;2023-03-31T09:54:23;85471.00;;;-3.70
74539;BMP180;66042;51.090;-115.340;2023-03-31T09:56:54;85462.60;;;-3.70
74539;BMP180;66042;51.090;-115.340;2023-03-31T09:59:29;85457.80;;;-3.70
74539;BMP180;66042;51.090;-115.340;2023-03-31T10:02:03;85467.20;;;-3.70
74539;BMP180;66042;51.090;-115.340;2023-03-31T10:04:34;85467.60;;;-3.70
74539;BMP180;66042;51.090;-115.340;2023-03-31T10:07:04;85464.40;;;-3.70
74539;BMP180;66042;51.090;-115.340;2023-03-31T10:09:33;85456.60;;;-3.74
74539;BMP180;66042;51.090;-115.340;2023-03-31T10:12:15;85455.60;;;-3.80
74539;BMP180;66042;51.090;-115.340;2023-03-31T10:14:52;85457.20;;;-3.86
74539;BMP180;66042;51.090;-115.340;2023-03-31T10:17:26;85455.40;;;-3.90
74539;BMP180;66042;51.090;-115.340;2023-03-31T10:20:22;85465.40;;;-3.90
74539;BMP180;66042;51.090;-115.340;2023-03-31T10:22:53;85467.80;;;-3.90
74539;BMP180;66042;51.090;-115.340;2023-03-31T10:25:26;85470.60;;;-3.90
74539;BMP180;66042;51.090;-115.340;2023-03-31T10:27:56;85471.20;;;-3.90
74539;BMP180;66042;51.090;-115.340;2023-03-31T10:30:35;85473.60;;;-3.90
74539;BMP180;66042;51.090;-115.340;2023-03-31T10:33:12;85473.20;;;-3.90
74539;BMP180;66042;51.090;-115.340;2023-03-31T10:35:40;85471.00;;;-3.90
74539;BMP180;66042;51.090;-115.340;2023-03-31T10:38:14;85469.20;;;-3.88
74539;BMP180;66042;51.090;-115.340;2023-03-31T10:40:53;85472.60;;;-3.90
74539;BMP180;66042;51.090;-115.340;2023-03-31T10:43:42;85472.60;;;-3.90
74539;BMP180;66042;51.090;-115.340;2023-03-31T10:46:13;85468.00;;;-3.90
74539;BMP180;66042;51.090;-115.340;2023-03-31T10:48:41;85479.00;;;-3.88
74539;BMP180;66042;51.090;-115.340;2023-03-31T10:51:57;85472.40;;;-3.90
74539;BMP180;66042;51.090;-115.340;2023-03-31T10:54:26;85479.40;;;-4.00
74539;BMP180;66042;51.090;-115.340;2023-03-31T10:56:58;85479.40;;;-4.00
74539;BMP180;66042;51.090;-115.340;2023-03-31T11:00:10;85480.80;;;-4.00
74539;BMP180;66042;51.090;-115.340;2023-03-31T11:11:51;85482.20;;;-4.00
74539;BMP180;66042;51.090;-115.340;2023-03-31T11:14:39;85478.60;;;-4.00
74539;BMP180;66042;51.090;-115.340;2023-03-31T11:20:34;85487.80;;;-4.10
74539;BMP180;66042;51.090;-115.340;2023-03-31T11:29:05;85485.80;;;-4.20
74539;BMP180;66042;51.090;-115.340;2023-03-31T11:37:41;85486.20;;;-4.20
74539;BMP180;66042;51.090;-115.340;2023-03-31T11:43:52;85490.80;;;-4.30
74539;BMP180;66042;51.090;-115.340;2023-03-31T11:46:50;85494.20;;;-4.40
74539;BMP180;66042;51.090;-115.340;2023-03-31T11:49:36;85493.40;;;-4.40
74539;BMP180;66042;51.090;-115.340;2023-03-31T11:52:18;85491.60;;;-4.40
74539;BMP180;66042;51.090;-115.340;2023-03-31T11:55:27;85494.80;;;-4.40
74539;BMP180;66042;51.090;-115.340;2023-03-31T11:57:58;85499.80;;;-4.40
74539;BMP180;66042;51.090;-115.340;2023-03-31T12:01:02;85495.60;;;-4.42
74539;BMP180;66042;51.090;-115.340;2023-03-31T12:06:41;85496.00;;;-4.50
74539;BMP180;66042;51.090;-115.340;2023-03-31T12:12:14;85509.60;;;-4.50
74539;BMP180;66042;51.090;-115.340;2023-03-31T12:17:44;85492.60;;;-4.60
74539;BMP180;66042;51.090;-115.340;2023-03-31T12:20:55;85498.40;;;-4.60
74539;BMP180;66042;51.090;-115.340;2023-03-31T12:23:29;85496.60;;;-4.64
74539;BMP180;66042;51.090;-115.340;2023-03-31T12:28:58;85502.40;;;-4.70
74539;BMP180;66042;51.090;-115.340;2023-03-31T12:31:27;85506.80;;;-4.70
74539;BMP180;66042;51.090;-115.340;2023-03-31T12:34:01;85494.00;;;-4.70
74539;BMP180;66042;51.090;-115.340;2023-03-31T12:42:34;85506.60;;;-4.80
74539;BMP180;66042;51.090;-115.340;2023-03-31T12:54:25;85501.80;;;-4.90
74539;BMP180;66042;51.090;-115.340;2023-03-31T12:59:41;85508.80;;;-5.00
74539;BMP180;66042;51.090;-115.340;2023-03-31T13:02:22;85516.80;;;-5.00
74539;BMP180;66042;51.090;-115.340;2023-03-31T13:04:49;85512.20;;;-5.10
74539;BMP180;66042;51.090;-115.340;2023-03-31T13:15:28;85514.60;;;-5.10
74539;BMP180;66042;51.090;-115.340;2023-03-31T13:18:05;85516.80;;;-5.18
74539;BMP180;66042;51.090;-115.340;2023-03-31T13:20:40;85513.80;;;-5.20
74539;BMP180;66042;51.090;-115.340;2023-03-31T13:23:22;85521.80;;;-5.20
74539;BMP180;66042;51.090;-115.340;2023-03-31T13:25:55;85517.00;;;-5.20
74539;BMP180;66042;51.090;-115.340;2023-03-31T13:31:09;85513.60;;;-5.26
74539;BMP180;66042;51.090;-115.340;2023-03-31T13:40:03;85512.20;;;-5.30
74539;BMP180;66042;51.090;-115.340;2023-03-31T13:46:41;85516.80;;;-5.30
74539;BMP180;66042;51.090;-115.340;2023-03-31T13:52:09;85518.60;;;-5.30
74539;BMP180;66042;51.090;-115.340;2023-03-31T13:55:34;85516.40;;;-5.30
74539;BMP180;66042;51.090;-115.340;2023-03-31T14:01:15;85525.20;;;-5.30
74539;BMP180;66042;51.090;-115.340;2023-03-31T14:07:36;85517.00;;;-5.30
74539;BMP180;66042;51.090;-115.340;2023-03-31T14:10:05;85513.40;;;-5.30
74539;BMP180;66042;51.090;-115.340;2023-03-31T14:12:37;85521.20;;;-5.30
74539;BMP180;66042;51.090;-115.340;2023-03-31T14:15:16;85523.80;;;-5.30
74539;BMP180;66042;51.090;-115.340;2023-03-31T14:17:44;85526.00;;;-5.32
74539;BMP180;66042;51.090;-115.340;2023-03-31T14:20:47;85520.40;;;-5.38
74539;BMP180;66042;51.090;-115.340;2023-03-31T14:26:58;85524.80;;;-5.30
74539;BMP180;66042;51.090;-115.340;2023-03-31T14:32:47;85524.20;;;-5.30
74539;BMP180;66042;51.090;-115.340;2023-03-31T14:38:29;85530.20;;;-5.30
74539;BMP180;66042;51.090;-115.340;2023-03-31T14:40:58;85524.20;;;-5.30
74539;BMP180;66042;51.090;-115.340;2023-03-31T14:43:43;85523.80;;;-5.30
74539;BMP180;66042;51.090;-115.340;2023-03-31T14:46:20;85531.00;;;-5.24
74539;BMP180;66042;51.090;-115.340;2023-03-31T14:48:50;85519.40;;;-5.20
74539;BMP180;66042;51.090;-115.340;2023-03-31T14:51:29;85530.00;;;-5.20
74539;BMP180;66042;51.090;-115.340;2023-03-31T14:54:01;85536.20;;;-5.10
74539;BMP180;66042;51.090;-115.340;2023-03-31T14:56:41;85531.20;;;-5.10
74539;BMP180;66042;51.090;-115.340;2023-03-31T14:59:09;85522.40;;;-5.00
74539;BMP180;66042;51.090;-115.340;2023-03-31T15:01:37;85527.40;;;-4.96
74539;BMP180;66042;51.090;-115.340;2023-03-31T15:04:13;85526.00;;;-4.90
74539;BMP180;66042;51.090;-115.340;2023-03-31T15:06:46;85524.20;;;-4.84
74539;BMP180;66042;51.090;-115.340;2023-03-31T15:09:23;85531.40;;;-4.80
74539;BMP180;66042;51.090;-115.340;2023-03-31T15:12:12;85531.00;;;-4.70
74539;BMP180;66042;51.090;-115.340;2023-03-31T15:14:47;85522.00;;;-4.60
74539;BMP180;66042;51.090;-115.340;2023-03-31T15:17:36;85520.20;;;-4.50
74539;BMP180;66042;51.090;-115.340;2023-03-31T15:20:34;85521.60;;;-4.44
74539;BMP180;66042;51.090;-115.340;2023-03-31T15:23:18;85524.20;;;-4.40
74539;BMP180;66042;51.090;-115.340;2023-03-31T15:26:07;85534.60;;;-4.30
74539;BMP180;66042;51.090;-115.340;2023-03-31T15:28:53;85526.40;;;-4.20
74539;BMP180;66042;51.090;-115.340;2023-03-31T15:31:23;85535.20;;;-4.10
74539;BMP180;66042;51.090;-115.340;2023-03-31T15:33:53;85529.20;;;-4.08
74539;BMP180;66042;51.090;-115.340;2023-03-31T15:36:20;85533.40;;;-4.00
74539;BMP180;66042;51.090;-115.340;2023-03-31T15:38:56;85525.80;;;-3.90
74539;BMP180;66042;51.090;-115.340;2023-03-31T15:41:28;85529.20;;;-3.80
74539;BMP180;66042;51.090;-115.340;2023-03-31T15:44:05;85527.00;;;-3.70
74539;BMP180;66042;51.090;-115.340;2023-03-31T15:49:23;85518.40;;;-3.50
74539;BMP180;66042;51.090;-115.340;2023-03-31T15:51:53;85520.20;;;-3.40
74539;BMP180;66042;51.090;-115.340;2023-03-31T15:57:03;85518.00;;;-3.20
74539;BMP180;66042;51.090;-115.340;2023-03-31T15:59:50;85520.40;;;-3.10
74539;BMP180;66042;51.090;-115.340;2023-03-31T16:02:38;85518.60;;;-2.92
74539;BMP180;66042;51.090;-115.340;2023-03-31T16:05:29;85514.40;;;-2.80
74539;BMP180;66042;51.090;-115.340;2023-03-31T16:08:02;85517.20;;;-2.70
74539;BMP180;66042;51.090;-115.340;2023-03-31T16:10:32;85517.00;;;-2.60
74539;BMP180;66042;51.090;-115.340;2023-03-31T16:13:05;85507.40;;;-2.40
74539;BMP180;66042;51.090;-115.340;2023-03-31T16:15:41;85501.40;;;-2.30
74539;BMP180;66042;51.090;-115.340;2023-03-31T16:18:22;85503.00;;;-2.20
74539;BMP180;66042;51.090;-115.340;2023-03-31T16:20:55;85505.00;;;-2.00
74539;BMP180;66042;51.090;-115.340;2023-03-31T16:23:30;85507.20;;;-1.90
74539;BMP180;66042;51.090;-115.340;2023-03-31T16:25:59;85491.60;;;-1.72
74539;BMP180;66042;51.090;-115.340;2023-03-31T16:28:31;85490.20;;;-1.60
74539;BMP180;66042;51.090;-115.340;2023-03-31T16:30:59;85485.60;;;-1.50
74539;BMP180;66042;51.090;-115.340;2023-03-31T16:33:51;85488.60;;;-1.30
74539;BMP180;66042;51.090;-115.340;2023-03-31T16:36:19;85497.80;;;-1.10
74539;BMP180;66042;51.090;-115.340;2023-03-31T16:38:45;85499.20;;;-0.94
74539;BMP180;66042;51.090;-115.340;2023-03-31T16:41:12;85495.20;;;-0.82
74539;BMP180;66042;51.090;-115.340;2023-03-31T16:43:44;85487.80;;;-0.70
74539;BMP180;66042;51.090;-115.340;2023-03-31T16:46:12;85486.40;;;-0.60
74539;BMP180;66042;51.090;-115.340;2023-03-31T16:48:40;85487.00;;;-0.42
74539;BMP180;66042;51.090;-115.340;2023-03-31T16:51:07;85479.60;;;-0.30
74539;BMP180;66042;51.090;-115.340;2023-03-31T16:53:35;85480.60;;;-0.10
74539;BMP180;66042;51.090;-115.340;2023-03-31T16:56:05;85481.60;;;0.20
74539;BMP180;66042;51.090;-115.340;2023-03-31T16:58:36;85496.20;;;0.42